sensor_id;sensor_type;location;lat;lon;timestamp;P1;durP1;ratioP1;P2;durP2;ratioP2
8642;SDS011;4359;49.358;11.256;2023-04-23T00:01:33;8.15;;;4.50;;
8642;SDS011;4359;49.358;11.256;2023-04-23T00:04:03;8.98;;;5.22;;
8642;SDS011;4359;49.358;11.256;2023-04-23T00:06:30;12.73;;;4.47;;
8642;SDS011;4359;49.358;11.256;2023-04-23T00:08:57;8.10;;;5.05;;
8642;SDS011;4359;49.358;11.256;2023-04-23T00:11:25;7.10;;;4.57;;
8642;SDS011;4359;49.358;11.256;2023-04-23T00:13:51;9.43;;;4.80;;
8642;SDS011;4359;49.358;11.256;2023-04-23T00:16:18;6.43;;;4.50;;
8642;SDS011;4359;49.358;11.256;2023-04-23T00:18:44;7.72;;;4.80;;
8642;SDS011;4359;49.358;11.256;2023-04-23T00:21:10;13.43;;;5.35;;
8642;SDS011;4359;49.358;11.256;2023-04-23T00:23:37;11.13;;;4.90;;
8642;SDS011;4359;49.358;11.256;2023-04-23T00:26:03;8.35;;;4.97;;
8642;SDS011;4359;49.358;11.256;2023-04-23T00:28:29;7.75;;;4.75;;
8642;SDS011;4359;49.358;11.256;2023-04-23T00:30:54;7.53;;;4.90;;
8642;SDS011;4359;49.358;11.256;2023-04-23T00:33:20;8.35;;;4.70;;
8642;SDS011;4359;49.358;11.256;2023-04-23T00:35:46;9.82;;;5.30;;
8642;SDS011;4359;49.358;11.256;2023-04-23T00:38:11;7.88;;;5.18;;
8642;SDS011;4359;49.358;11.256;2023-04-23T00:40:37;7.60;;;4.93;;
8642;SDS011;4359;49.358;11.256;2023-04-23T00:43:03;6.75;;;5.03;;
8642;SDS011;4359;49.358;11.256;2023-04-23T00:45:29;8.35;;;5.53;;
8642;SDS011;4359;49.358;11.256;2023-04-23T00:47:54;7.30;;;5.05;;
8642;SDS011;4359;49.358;11.256;2023-04-23T00:50:20;7.10;;;5.22;;
8642;SDS011;4359;49.358;11.256;2023-04-23T00:52:46;10.23;;;5.82;;
8642;SDS011;4359;49.358;11.256;2023-04-23T00:55:11;7.80;;;5.07;;
8642;SDS011;4359;49.358;11.256;2023-04-23T00:57:37;11.88;;;5.57;;
8642;SDS011;4359;49.358;11.256;2023-04-23T01:00:04;7.82;;;5.32;;
8642;SDS011;4359;49.358;11.256;2023-04-23T01:02:31;16.38;;;6.45;;
8642;SDS011;4359;49.358;11.256;2023-04-23T01:04:58;12.93;;;6.78;;
8642;SDS011;4359;49.358;11.256;2023-04-23T01:07:25;13.75;;;6.20;;
8642;SDS011;4359;49.358;11.256;2023-04-23T01:09:51;18.08;;;7.65;;
8642;SDS011;4359;49.358;11.256;2023-04-23T01:12:17;9.95;;;5.88;;
8642;SDS011;4359;49.358;11.256;2023-04-23T01:14:43;8.73;;;6.00;;
8642;SDS011;4359;49.358;11.256;2023-04-23T01:17:09;9.45;;;5.35;;
8642;SDS011;4359;49.358;11.256;2023-04-23T01:19:36;7.95;;;5.72;;
8642;SDS011;4359;49.358;11.256;2023-04-23T01:22:07;10.25;;;5.70;;
8642;SDS011;4359;49.358;11.256;2023-04-23T01:24:34;10.68;;;5.40;;
8642;SDS011;4359;49.358;11.256;2023-04-23T01:27:00;7.53;;;5.50;;
8642;SDS011;4359;49.358;11.256;2023-04-23T01:29:26;7.63;;;5.88;;
8642;SDS011;4359;49.358;11.256;2023-04-23T01:31:52;6.00;;;5.05;;
8642;SDS011;4359;49.358;11.256;2023-04-23T01:34:19;6.13;;;4.97;;
8642;SDS011;4359;49.358;11.256;2023-04-23T01:36:46;6.65;;;5.18;;
8642;SDS011;4359;49.358;11.256;2023-04-23T01:39:12;6.35;;;5.13;;
8642;SDS011;4359;49.358;11.256;2023-04-23T01:41:38;8.75;;;4.93;;
8642;SDS011;4359;49.358;11.256;2023-04-23T01:44:05;9.80;;;5.38;;
8642;SDS011;4359;49.358;11.256;2023-04-23T01:46:31;10.43;;;5.10;;
8642;SDS011;4359;49.358;11.256;2023-04-23T01:48:57;9.93;;;5.20;;
8642;SDS011;4359;49.358;11.256;2023-04-23T01:51:22;6.45;;;4.88;;
8642;SDS011;4359;49.358;11.256;2023-04-23T01:53:49;9.40;;;6.07;;
8642;SDS011;4359;49.358;11.256;2023-04-23T01:56:15;8.90;;;5.22;;
8642;SDS011;4359;49.358;11.256;2023-04-23T01:58:43;11.88;;;6.43;;
8642;SDS011;4359;49.358;11.256;2023-04-23T02:01:09;12.38;;;5.75;;
8642;SDS011;4359;49.358;11.256;2023-04-23T02:03:34;8.60;;;6.35;;
8642;SDS011;4359;49.358;11.256;2023-04-23T02:06:00;8.60;;;6.75;;
8642;SDS011;4359;49.358;11.256;2023-04-23T02:08:26;9.68;;;6.53;;
8642;SDS011;4359;49.358;11.256;2023-04-23T02:10:52;15.27;;;9.18;;
8642;SDS011;4359;49.358;11.256;2023-04-23T02:13:18;10.77;;;7.00;;
8642;SDS011;4359;49.358;11.256;2023-04-23T02:15:43;7.07;;;5.60;;
8642;SDS011;4359;49.358;11.256;2023-04-23T02:18:09;7.50;;;5.38;;
8642;SDS011;4359;49.358;11.256;2023-04-23T02:20:35;7.05;;;5.75;;
8642;SDS011;4359;49.358;11.256;2023-04-23T02:23:04;6.95;;;5.45;;
8642;SDS011;4359;49.358;11.256;2023-04-23T02:25:31;9.38;;;5.43;;
8642;SDS011;4359;49.358;11.256;2023-04-23T02:27:57;9.80;;;5.78;;
8642;SDS011;4359;49.358;11.256;2023-04-23T02:30:25;7.15;;;5.45;;
8642;SDS011;4359;49.358;11.256;2023-04-23T02:32:51;7.45;;;5.50;;
8642;SDS011;4359;49.358;11.256;2023-04-23T02:35:17;7.05;;;5.40;;
8642;SDS011;4359;49.358;11.256;2023-04-23T02:37:42;9.45;;;5.88;;
8642;SDS011;4359;49.358;11.256;2023-04-23T02:40:08;10.48;;;6.05;;
8642;SDS011;4359;49.358;11.256;2023-04-23T02:42:34;10.60;;;5.80;;
8642;SDS011;4359;49.358;11.256;2023-04-23T02:45:00;10.50;;;6.53;;
8642;SDS011;4359;49.358;11.256;2023-04-23T02:47:25;8.45;;;5.88;;
8642;SDS011;4359;49.358;11.256;2023-04-23T02:49:51;7.43;;;5.72;;
8642;SDS011;4359;49.358;11.256;2023-04-23T02:52:17;7.47;;;5.00;;
8642;SDS011;4359;49.358;11.256;2023-04-23T02:54:43;8.65;;;5.03;;
8642;SDS011;4359;49.358;11.256;2023-04-23T02:57:08;9.18;;;4.47;;
8642;SDS011;4359;49.358;11.256;2023-04-23T02:59:34;8.02;;;5.40;;
8642;SDS011;4359;49.358;11.256;2023-04-23T03:02:00;5.68;;;3.75;;
8642;SDS011;4359;49.358;11.256;2023-04-23T03:04:25;5.35;;;3.85;;
8642;SDS011;4359;49.358;11.256;2023-04-23T03:06:51;8.60;;;3.72;;
8642;SDS011;4359;49.358;11.256;2023-04-23T03:09:17;5.78;;;3.42;;
8642;SDS011;4359;49.358;11.256;2023-04-23T03:11:43;8.32;;;3.80;;
8642;SDS011;4359;49.358;11.256;2023-04-23T03:14:08;7.68;;;3.95;;
8642;SDS011;4359;49.358;11.256;2023-04-23T03:16:34;9.77;;;3.75;;
8642;SDS011;4359;49.358;11.256;2023-04-23T03:19:00;8.70;;;3.90;;
8642;SDS011;4359;49.358;11.256;2023-04-23T03:21:25;5.38;;;3.45;;
8642;SDS011;4359;49.358;11.256;2023-04-23T03:23:51;9.73;;;3.85;;
8642;SDS011;4359;49.358;11.256;2023-04-23T03:26:17;9.07;;;3.97;;
8642;SDS011;4359;49.358;11.256;2023-04-23T03:28:42;8.13;;;3.42;;
8642;SDS011;4359;49.358;11.256;2023-04-23T03:31:08;6.68;;;3.90;;
8642;SDS011;4359;49.358;11.256;2023-04-23T03:33:34;8.57;;;4.00;;
8642;SDS011;4359;49.358;11.256;2023-04-23T03:36:00;6.40;;;3.75;;
8642;SDS011;4359;49.358;11.256;2023-04-23T03:38:26;8.07;;;3.10;;
8642;SDS011;4359;49.358;11.256;2023-04-23T03:40:51;4.55;;;3.13;;
8642;SDS011;4359;49.358;11.256;2023-04-23T03:43:17;6.90;;;3.28;;
8642;SDS011;4359;49.358;11.256;2023-04-23T03:45:43;7.10;;;3.40;;
8642;SDS011;4359;49.358;11.256;2023-04-23T03:48:08;5.57;;;3.17;;
8642;SDS011;4359;49.358;11.256;2023-04-23T03:50:34;5.13;;;3.28;;
8642;SDS011;4359;49.358;11.256;2023-04-23T03:53:04;5.13;;;2.60;;
8642;SDS011;4359;49.358;11.256;2023-04-23T03:55:30;10.13;;;3.47;;
8642;SDS011;4359;49.358;11.256;2023-04-23T03:57:56;5.57;;;2.80;;
8642;SDS011;4359;49.358;11.256;2023-04-23T04:00:23;8.35;;;3.30;;
8642;SDS011;4359;49.358;11.256;2023-04-23T04:02:49;4.97;;;2.90;;
8642;SDS011;4359;49.358;11.256;2023-04-23T04:05:14;6.50;;;2.83;;
8642;SDS011;4359;49.358;11.256;2023-04-23T04:07:40;3.03;;;2.40;;
8642;SDS011;4359;49.358;11.256;2023-04-23T04:10:06;6.45;;;2.50;;
8642;SDS011;4359;49.358;11.256;2023-04-23T04:12:32;5.47;;;2.58;;
8642;SDS011;4359;49.358;11.256;2023-04-23T04:14:57;5.40;;;2.60;;
8642;SDS011;4359;49.358;11.256;2023-04-23T04:17:23;5.22;;;2.80;;
8642;SDS011;4359;49.358;11.256;2023-04-23T04:19:49;5.97;;;2.67;;
8642;SDS011;4359;49.358;11.256;2023-04-23T04:22:15;6.10;;;2.63;;
8642;SDS011;4359;49.358;11.256;2023-04-23T04:24:41;3.83;;;2.63;;
8642;SDS011;4359;49.358;11.256;2023-04-23T04:27:07;5.70;;;2.80;;
8642;SDS011;4359;49.358;11.256;2023-04-23T04:29:33;5.07;;;2.90;;
8642;SDS011;4359;49.358;11.256;2023-04-23T04:31:59;7.70;;;3.40;;
8642;SDS011;4359;49.358;11.256;2023-04-23T04:34:26;9.23;;;3.40;;
8642;SDS011;4359;49.358;11.256;2023-04-23T04:36:52;6.40;;;3.67;;
8642;SDS011;4359;49.358;11.256;2023-04-23T04:39:21;7.32;;;4.00;;
8642;SDS011;4359;49.358;11.256;2023-04-23T04:41:46;6.40;;;4.03;;
8642;SDS011;4359;49.358;11.256;2023-04-23T04:44:12;6.75;;;4.05;;
8642;SDS011;4359;49.358;11.256;2023-04-23T04:46:38;6.07;;;3.80;;
8642;SDS011;4359;49.358;11.256;2023-04-23T04:49:07;7.15;;;3.85;;
8642;SDS011;4359;49.358;11.256;2023-04-23T04:51:33;6.47;;;3.83;;
8642;SDS011;4359;49.358;11.256;2023-04-23T04:54:00;6.90;;;4.00;;
8642;SDS011;4359;49.358;11.256;2023-04-23T04:56:26;5.90;;;3.92;;
8642;SDS011;4359;49.358;11.256;2023-04-23T04:58:52;7.65;;;3.90;;
8642;SDS011;4359;49.358;11.256;2023-04-23T05:01:18;6.00;;;3.92;;
8642;SDS011;4359;49.358;11.256;2023-04-23T05:03:45;6.72;;;3.50;;
8642;SDS011;4359;49.358;11.256;2023-04-23T05:06:11;8.50;;;3.97;;
8642;SDS011;4359;49.358;11.256;2023-04-23T05:08:37;9.57;;;3.90;;
8642;SDS011;4359;49.358;11.256;2023-04-23T05:11:02;8.57;;;4.10;;
8642;SDS011;4359;49.358;11.256;2023-04-23T05:13:28;6.88;;;4.55;;
8642;SDS011;4359;49.358;11.256;2023-04-23T05:15:54;8.18;;;4.00;;
8642;SDS011;4359;49.358;11.256;2023-04-23T05:18:19;8.02;;;4.68;;
8642;SDS011;4359;49.358;11.256;2023-04-23T05:20:45;8.43;;;4.20;;
8642;SDS011;4359;49.358;11.256;2023-04-23T05:23:11;7.78;;;4.38;;
8642;SDS011;4359;49.358;11.256;2023-04-23T05:25:36;9.82;;;4.22;;
8642;SDS011;4359;49.358;11.256;2023-04-23T05:28:02;7.60;;;4.47;;
8642;SDS011;4359;49.358;11.256;2023-04-23T05:30:28;10.07;;;4.22;;
8642;SDS011;4359;49.358;11.256;2023-04-23T05:32:55;12.35;;;4.82;;
8642;SDS011;4359;49.358;11.256;2023-04-23T05:35:20;9.15;;;5.00;;
8642;SDS011;4359;49.358;11.256;2023-04-23T05:37:46;7.97;;;5.15;;
8642;SDS011;4359;49.358;11.256;2023-04-23T05:40:12;10.43;;;5.18;;
8642;SDS011;4359;49.358;11.256;2023-04-23T05:42:38;11.25;;;5.15;;
8642;SDS011;4359;49.358;11.256;2023-04-23T05:45:04;9.02;;;5.47;;
8642;SDS011;4359;49.358;11.256;2023-04-23T05:47:30;9.52;;;5.30;;
8642;SDS011;4359;49.358;11.256;2023-04-23T05:49:55;9.48;;;5.78;;
8642;SDS011;4359;49.358;11.256;2023-04-23T05:52:21;7.88;;;5.53;;
8642;SDS011;4359;49.358;11.256;2023-04-23T05:54:47;7.63;;;5.72;;
8642;SDS011;4359;49.358;11.256;2023-04-23T05:57:13;10.23;;;6.00;;
8642;SDS011;4359;49.358;11.256;2023-04-23T05:59:39;11.15;;;6.13;;
8642;SDS011;4359;49.358;11.256;2023-04-23T06:02:04;10.95;;;6.03;;
8642;SDS011;4359;49.358;11.256;2023-04-23T06:04:31;11.30;;;6.32;;
8642;SDS011;4359;49.358;11.256;2023-04-23T06:06:56;10.10;;;6.00;;
8642;SDS011;4359;49.358;11.256;2023-04-23T06:09:22;11.30;;;6.38;;
8642;SDS011;4359;49.358;11.256;2023-04-23T06:11:47;7.85;;;5.80;;
8642;SDS011;4359;49.358;11.256;2023-04-23T06:14:15;7.57;;;5.85;;
8642;SDS011;4359;49.358;11.256;2023-04-23T06:16:40;9.32;;;5.65;;
8642;SDS011;4359;49.358;11.256;2023-04-23T06:19:06;9.38;;;5.78;;
8642;SDS011;4359;49.358;11.256;2023-04-23T06:21:32;9.32;;;6.25;;
8642;SDS011;4359;49.358;11.256;2023-04-23T06:23:57;7.53;;;5.57;;
8642;SDS011;4359;49.358;11.256;2023-04-23T06:26:24;9.32;;;6.25;;
8642;SDS011;4359;49.358;11.256;2023-04-23T06:28:50;8.88;;;6.45;;
8642;SDS011;4359;49.358;11.256;2023-04-23T06:31:16;11.07;;;6.10;;
8642;SDS011;4359;49.358;11.256;2023-04-23T06:33:42;11.95;;;5.88;;
8642;SDS011;4359;49.358;11.256;2023-04-23T06:36:07;9.05;;;5.95;;
8642;SDS011;4359;49.358;11.256;2023-04-23T06:38:36;9.60;;;5.72;;
8642;SDS011;4359;49.358;11.256;2023-04-23T06:41:02;7.95;;;5.35;;
8642;SDS011;4359;49.358;11.256;2023-04-23T06:43:29;10.25;;;6.43;;
8642;SDS011;4359;49.358;11.256;2023-04-23T06:45:55;11.63;;;6.22;;
8642;SDS011;4359;49.358;11.256;2023-04-23T06:48:21;9.55;;;5.95;;
8642;SDS011;4359;49.358;11.256;2023-04-23T06:50:49;12.90;;;6.57;;
8642;SDS011;4359;49.358;11.256;2023-04-23T06:53:15;12.50;;;6.95;;
8642;SDS011;4359;49.358;11.256;2023-04-23T06:55:41;10.68;;;6.88;;
8642;SDS011;4359;49.358;11.256;2023-04-23T06:58:06;11.75;;;6.90;;
8642;SDS011;4359;49.358;11.256;2023-04-23T07:00:32;10.23;;;7.32;;
8642;SDS011;4359;49.358;11.256;2023-04-23T07:02:57;10.93;;;6.78;;
8642;SDS011;4359;49.358;11.256;2023-04-23T07:05:23;12.82;;;7.97;;
8642;SDS011;4359;49.358;11.256;2023-04-23T07:07:49;12.55;;;6.95;;
8642;SDS011;4359;49.358;11.256;2023-04-23T07:10:15;11.65;;;7.25;;
8642;SDS011;4359;49.358;11.256;2023-04-23T07:12:41;11.38;;;7.28;;
8642;SDS011;4359;49.358;11.256;2023-04-23T07:15:06;13.27;;;8.15;;
8642;SDS011;4359;49.358;11.256;2023-04-23T07:17:32;10.98;;;7.97;;
8642;SDS011;4359;49.358;11.256;2023-04-23T07:19:59;14.90;;;8.05;;
8642;SDS011;4359;49.358;11.256;2023-04-23T07:22:27;11.20;;;7.85;;
8642;SDS011;4359;49.358;11.256;2023-04-23T07:24:53;11.48;;;7.40;;
8642;SDS011;4359;49.358;11.256;2023-04-23T07:27:19;18.30;;;7.82;;
8642;SDS011;4359;49.358;11.256;2023-04-23T07:29:44;13.52;;;7.57;;
8642;SDS011;4359;49.358;11.256;2023-04-23T07:32:10;10.82;;;6.65;;
8642;SDS011;4359;49.358;11.256;2023-04-23T07:34:36;12.95;;;8.20;;
8642;SDS011;4359;49.358;11.256;2023-04-23T07:37:02;12.80;;;7.53;;
8642;SDS011;4359;49.358;11.256;2023-04-23T07:39:27;10.38;;;6.90;;
8642;SDS011;4359;49.358;11.256;2023-04-23T07:41:53;12.30;;;7.20;;
8642;SDS011;4359;49.358;11.256;2023-04-23T07:44:20;12.35;;;6.55;;
8642;SDS011;4359;49.358;11.256;2023-04-23T07:46:46;8.95;;;6.40;;
8642;SDS011;4359;49.358;11.256;2023-04-23T07:49:12;9.13;;;6.00;;
8642;SDS011;4359;49.358;11.256;2023-04-23T07:51:37;6.60;;;4.68;;
8642;SDS011;4359;49.358;11.256;2023-04-23T07:54:03;9.13;;;4.68;;
8642;SDS011;4359;49.358;11.256;2023-04-23T07:56:29;8.07;;;4.10;;
8642;SDS011;4359;49.358;11.256;2023-04-23T07:58:56;5.32;;;4.07;;
8642;SDS011;4359;49.358;11.256;2023-04-23T08:01:23;7.18;;;3.55;;
8642;SDS011;4359;49.358;11.256;2023-04-23T08:03:49;7.50;;;3.30;;
8642;SDS011;4359;49.358;11.256;2023-04-23T08:06:15;5.40;;;3.30;;
8642;SDS011;4359;49.358;11.256;2023-04-23T08:08:42;4.15;;;2.83;;
8642;SDS011;4359;49.358;11.256;2023-04-23T08:11:08;6.82;;;3.75;;
8642;SDS011;4359;49.358;11.256;2023-04-23T08:13:35;5.22;;;3.30;;
8642;SDS011;4359;49.358;11.256;2023-04-23T08:16:00;5.18;;;3.13;;
8642;SDS011;4359;49.358;11.256;2023-04-23T08:18:26;5.25;;;2.97;;
8642;SDS011;4359;49.358;11.256;2023-04-23T08:20:52;6.85;;;3.00;;
8642;SDS011;4359;49.358;11.256;2023-04-23T08:23:18;6.10;;;2.55;;
8642;SDS011;4359;49.358;11.256;2023-04-23T08:25:44;6.07;;;2.50;;
8642;SDS011;4359;49.358;11.256;2023-04-23T08:28:10;5.68;;;2.75;;
8642;SDS011;4359;49.358;11.256;2023-04-23T08:30:35;5.60;;;2.40;;
8642;SDS011;4359;49.358;11.256;2023-04-23T08:33:01;5.95;;;2.60;;
8642;SDS011;4359;49.358;11.256;2023-04-23T08:35:26;4.07;;;2.50;;
8642;SDS011;4359;49.358;11.256;2023-04-23T08:37:52;4.20;;;2.25;;
8642;SDS011;4359;49.358;11.256;2023-04-23T08:40:18;4.28;;;2.53;;
8642;SDS011;4359;49.358;11.256;2023-04-23T08:45:15;8.07;;;2.85;;
8642;SDS011;4359;49.358;11.256;2023-04-23T08:47:41;3.33;;;2.40;;
8642;SDS011;4359;49.358;11.256;2023-04-23T08:50:07;5.72;;;2.60;;
8642;SDS011;4359;49.358;11.256;2023-04-23T08:52:45;6.18;;;2.63;;
8642;SDS011;4359;49.358;11.256;2023-04-23T08:55:16;5.22;;;2.67;;
8642;SDS011;4359;49.358;11.256;2023-04-23T08:57:43;4.78;;;2.00;;
8642;SDS011;4359;49.358;11.256;2023-04-23T09:00:10;4.20;;;2.13;;
8642;SDS011;4359;49.358;11.256;2023-04-23T09:02:47;3.65;;;2.30;;
8642;SDS011;4359;49.358;11.256;2023-04-23T09:05:14;3.65;;;2.20;;
8642;SDS011;4359;49.358;11.256;2023-04-23T09:07:40;4.28;;;1.95;;
8642;SDS011;4359;49.358;11.256;2023-04-23T09:10:07;5.65;;;2.03;;
8642;SDS011;4359;49.358;11.256;2023-04-23T09:12:36;2.95;;;1.40;;
8642;SDS011;4359;49.358;11.256;2023-04-23T09:15:03;3.53;;;1.92;;
8642;SDS011;4359;49.358;11.256;2023-04-23T09:17:37;3.15;;;1.52;;
8642;SDS011;4359;49.358;11.256;2023-04-23T09:20:08;2.80;;;1.58;;
8642;SDS011;4359;49.358;11.256;2023-04-23T09:27:37;2.58;;;1.33;;
8642;SDS011;4359;49.358;11.256;2023-04-23T09:30:07;3.90;;;1.60;;
8642;SDS011;4359;49.358;11.256;2023-04-23T09:32:35;3.50;;;1.50;;
8642;SDS011;4359;49.358;11.256;2023-04-23T09:35:03;4.05;;;1.35;;
8642;SDS011;4359;49.358;11.256;2023-04-23T09:37:30;4.38;;;1.40;;
8642;SDS011;4359;49.358;11.256;2023-04-23T09:40:00;2.50;;;1.33;;
8642;SDS011;4359;49.358;11.256;2023-04-23T09:42:29;2.80;;;1.50;;
8642;SDS011;4359;49.358;11.256;2023-04-23T09:44:57;3.78;;;1.67;;
8642;SDS011;4359;49.358;11.256;2023-04-23T09:47:39;2.22;;;1.30;;
8642;SDS011;4359;49.358;11.256;2023-04-23T09:50:06;2.83;;;1.55;;
8642;SDS011;4359;49.358;11.256;2023-04-23T09:52:37;5.88;;;4.40;;
8642;SDS011;4359;49.358;11.256;2023-04-23T09:55:03;3.72;;;2.40;;
8642;SDS011;4359;49.358;11.256;2023-04-23T09:57:51;2.60;;;1.40;;
8642;SDS011;4359;49.358;11.256;2023-04-23T10:00:19;7.85;;;5.65;;
8642;SDS011;4359;49.358;11.256;2023-04-23T10:02:47;3.53;;;2.10;;
8642;SDS011;4359;49.358;11.256;2023-04-23T10:05:17;3.03;;;1.48;;
8642;SDS011;4359;49.358;11.256;2023-04-23T10:07:44;2.78;;;1.20;;
8642;SDS011;4359;49.358;11.256;2023-04-23T10:10:12;5.03;;;2.28;;
8642;SDS011;4359;49.358;11.256;2023-04-23T10:12:42;2.90;;;1.50;;
8642;SDS011;4359;49.358;11.256;2023-04-23T10:15:08;1.77;;;1.08;;
8642;SDS011;4359;49.358;11.256;2023-04-23T10:17:35;3.65;;;1.20;;
8642;SDS011;4359;49.358;11.256;2023-04-23T10:20:02;2.47;;;1.20;;
8642;SDS011;4359;49.358;11.256;2023-04-23T10:22:29;4.72;;;1.50;;
8642;SDS011;4359;49.358;11.256;2023-04-23T10:24:56;3.85;;;1.70;;
8642;SDS011;4359;49.358;11.256;2023-04-23T10:27:28;6.75;;;1.45;;
8642;SDS011;4359;49.358;11.256;2023-04-23T10:29:58;3.90;;;1.67;;
8642;SDS011;4359;49.358;11.256;2023-04-23T10:32:25;4.18;;;1.40;;
8642;SDS011;4359;49.358;11.256;2023-04-23T10:34:52;4.10;;;1.50;;
8642;SDS011;4359;49.358;11.256;2023-04-23T10:37:18;3.90;;;1.60;;
8642;SDS011;4359;49.358;11.256;2023-04-23T10:39:45;3.83;;;1.40;;
8642;SDS011;4359;49.358;11.256;2023-04-23T10:42:14;4.00;;;1.67;;
8642;SDS011;4359;49.358;11.256;2023-04-23T10:44:42;2.90;;;1.15;;
8642;SDS011;4359;49.358;11.256;2023-04-23T10:47:12;4.30;;;1.27;;
8642;SDS011;4359;49.358;11.256;2023-04-23T10:49:39;2.28;;;1.20;;
8642;SDS011;4359;49.358;11.256;2023-04-23T10:52:09;3.67;;;1.33;;
8642;SDS011;4359;49.358;11.256;2023-04-23T10:54:41;4.07;;;1.48;;
8642;SDS011;4359;49.358;11.256;2023-04-23T10:57:13;2.83;;;1.20;;
8642;SDS011;4359;49.358;11.256;2023-04-23T10:59:40;3.30;;;1.23;;
8642;SDS011;4359;49.358;11.256;2023-04-23T11:02:21;3.28;;;1.25;;
8642;SDS011;4359;49.358;11.256;2023-04-23T11:04:55;2.55;;;1.15;;
8642;SDS011;4359;49.358;11.256;2023-04-23T11:07:40;3.35;;;1.52;;
8642;SDS011;4359;49.358;11.256;2023-04-23T11:10:12;5.75;;;1.10;;
8642;SDS011;4359;49.358;11.256;2023-04-23T11:12:39;2.72;;;1.10;;
8642;SDS011;4359;49.358;11.256;2023-04-23T11:15:09;4.40;;;1.77;;
8642;SDS011;4359;49.358;11.256;2023-04-23T11:20:09;3.88;;;1.48;;
8642;SDS011;4359;49.358;11.256;2023-04-23T11:22:43;2.97;;;1.30;;
8642;SDS011;4359;49.358;11.256;2023-04-23T11:25:28;4.53;;;1.38;;
8642;SDS011;4359;49.358;11.256;2023-04-23T11:27:57;3.90;;;1.20;;
8642;SDS011;4359;49.358;11.256;2023-04-23T11:30:23;2.53;;;1.02;;
8642;SDS011;4359;49.358;11.256;2023-04-23T11:32:50;2.90;;;0.98;;
8642;SDS011;4359;49.358;11.256;2023-04-23T11:35:18;1.98;;;1.13;;
8642;SDS011;4359;49.358;11.256;2023-04-23T11:37:46;4.53;;;0.93;;
8642;SDS011;4359;49.358;11.256;2023-04-23T11:40:14;2.10;;;0.75;;
8642;SDS011;4359;49.358;11.256;2023-04-23T11:42:52;2.88;;;1.30;;
8642;SDS011;4359;49.358;11.256;2023-04-23T11:45:19;2.45;;;1.00;;
8642;SDS011;4359;49.358;11.256;2023-04-23T11:47:48;3.20;;;1.20;;
8642;SDS011;4359;49.358;11.256;2023-04-23T11:50:18;2.25;;;0.80;;
8642;SDS011;4359;49.358;11.256;2023-04-23T11:52:44;2.50;;;1.20;;
8642;SDS011;4359;49.358;11.256;2023-04-23T11:55:10;4.72;;;1.00;;
8642;SDS011;4359;49.358;11.256;2023-04-23T11:57:43;2.00;;;1.00;;
8642;SDS011;4359;49.358;11.256;2023-04-23T12:00:28;1.83;;;0.75;;
8642;SDS011;4359;49.358;11.256;2023-04-23T12:02:57;2.75;;;1.40;;
8642;SDS011;4359;49.358;11.256;2023-04-23T12:07:52;2.47;;;0.88;;
8642;SDS011;4359;49.358;11.256;2023-04-23T12:10:22;3.28;;;0.90;;
8642;SDS011;4359;49.358;11.256;2023-04-23T12:12:51;2.45;;;0.80;;
8642;SDS011;4359;49.358;11.256;2023-04-23T12:15:17;2.15;;;1.00;;
8642;SDS011;4359;49.358;11.256;2023-04-23T12:17:50;3.47;;;0.85;;
8642;SDS011;4359;49.358;11.256;2023-04-23T12:20:20;2.10;;;0.90;;
8642;SDS011;4359;49.358;11.256;2023-04-23T12:22:46;1.85;;;0.85;;
8642;SDS011;4359;49.358;11.256;2023-04-23T12:25:13;2.05;;;0.98;;
8642;SDS011;4359;49.358;11.256;2023-04-23T12:27:39;2.30;;;0.70;;
8642;SDS011;4359;49.358;11.256;2023-04-23T12:30:06;1.75;;;0.73;;
8642;SDS011;4359;49.358;11.256;2023-04-23T12:32:33;3.53;;;0.85;;
8642;SDS011;4359;49.358;11.256;2023-04-23T12:34:59;4.10;;;1.10;;
8642;SDS011;4359;49.358;11.256;2023-04-23T12:37:25;2.47;;;0.95;;
8642;SDS011;4359;49.358;11.256;2023-04-23T12:39:52;1.92;;;0.90;;
8642;SDS011;4359;49.358;11.256;2023-04-23T12:42:20;3.60;;;1.10;;
8642;SDS011;4359;49.358;11.256;2023-04-23T12:44:46;4.15;;;1.10;;
8642;SDS011;4359;49.358;11.256;2023-04-23T12:47:12;2.75;;;0.90;;
8642;SDS011;4359;49.358;11.256;2023-04-23T12:49:41;3.75;;;1.00;;
8642;SDS011;4359;49.358;11.256;2023-04-23T12:52:07;2.60;;;1.30;;
8642;SDS011;4359;49.358;11.256;2023-04-23T12:54:34;2.50;;;1.10;;
8642;SDS011;4359;49.358;11.256;2023-04-23T12:57:04;2.75;;;1.00;;
8642;SDS011;4359;49.358;11.256;2023-04-23T12:59:32;2.22;;;0.80;;
8642;SDS011;4359;49.358;11.256;2023-04-23T13:01:58;2.30;;;0.90;;
8642;SDS011;4359;49.358;11.256;2023-04-23T13:04:28;1.70;;;0.90;;
8642;SDS011;4359;49.358;11.256;2023-04-23T13:06:54;2.42;;;1.05;;
8642;SDS011;4359;49.358;11.256;2023-04-23T13:09:21;3.53;;;1.02;;
8642;SDS011;4359;49.358;11.256;2023-04-23T13:11:48;2.85;;;1.30;;
8642;SDS011;4359;49.358;11.256;2023-04-23T13:14:14;2.20;;;0.93;;
8642;SDS011;4359;49.358;11.256;2023-04-23T13:16:41;1.70;;;0.90;;
8642;SDS011;4359;49.358;11.256;2023-04-23T13:19:07;2.25;;;1.08;;
8642;SDS011;4359;49.358;11.256;2023-04-23T13:21:33;4.07;;;1.00;;
8642;SDS011;4359;49.358;11.256;2023-04-23T13:23:58;2.70;;;0.90;;
8642;SDS011;4359;49.358;11.256;2023-04-23T13:26:25;3.85;;;1.15;;
8642;SDS011;4359;49.358;11.256;2023-04-23T13:28:53;2.50;;;0.93;;
8642;SDS011;4359;49.358;11.256;2023-04-23T13:31:19;3.00;;;0.90;;
8642;SDS011;4359;49.358;11.256;2023-04-23T13:33:45;1.88;;;0.95;;
8642;SDS011;4359;49.358;11.256;2023-04-23T13:36:10;3.95;;;1.30;;
8642;SDS011;4359;49.358;11.256;2023-04-23T13:38:36;3.85;;;0.90;;
8642;SDS011;4359;49.358;11.256;2023-04-23T13:41:02;3.15;;;1.10;;
8642;SDS011;4359;49.358;11.256;2023-04-23T13:43:28;3.15;;;1.10;;
8642;SDS011;4359;49.358;11.256;2023-04-23T13:45:54;2.35;;;0.85;;
8642;SDS011;4359;49.358;11.256;2023-04-23T13:48:19;3.15;;;1.00;;
8642;SDS011;4359;49.358;11.256;2023-04-23T13:50:45;1.92;;;0.90;;
8642;SDS011;4359;49.358;11.256;2023-04-23T13:53:11;3.90;;;1.10;;
8642;SDS011;4359;49.358;11.256;2023-04-23T13:55:37;2.22;;;1.10;;
8642;SDS011;4359;49.358;11.256;2023-04-23T13:58:03;4.50;;;1.00;;
8642;SDS011;4359;49.358;11.256;2023-04-23T14:00:30;1.80;;;0.90;;
8642;SDS011;4359;49.358;11.256;2023-04-23T14:02:56;3.38;;;1.10;;
8642;SDS011;4359;49.358;11.256;2023-04-23T14:05:22;2.65;;;1.23;;
8642;SDS011;4359;49.358;11.256;2023-04-23T14:07:48;3.60;;;0.90;;
8642;SDS011;4359;49.358;11.256;2023-04-23T14:10:14;2.85;;;0.95;;
8642;SDS011;4359;49.358;11.256;2023-04-23T14:12:40;2.45;;;0.90;;
8642;SDS011;4359;49.358;11.256;2023-04-23T14:15:06;1.20;;;0.60;;
8642;SDS011;4359;49.358;11.256;2023-04-23T14:17:36;2.13;;;0.80;;
8642;SDS011;4359;49.358;11.256;2023-04-23T14:20:03;2.17;;;0.80;;
8642;SDS011;4359;49.358;11.256;2023-04-23T14:22:30;1.95;;;0.73;;
8642;SDS011;4359;49.358;11.256;2023-04-23T14:24:56;2.33;;;0.55;;
8642;SDS011;4359;49.358;11.256;2023-04-23T14:27:38;1.80;;;0.80;;
8642;SDS011;4359;49.358;11.256;2023-04-23T14:30:06;1.80;;;0.70;;
8642;SDS011;4359;49.358;11.256;2023-04-23T14:32:43;2.33;;;0.70;;
8642;SDS011;4359;49.358;11.256;2023-04-23T14:35:10;2.00;;;0.80;;
8642;SDS011;4359;49.358;11.256;2023-04-23T14:37:37;1.52;;;0.70;;
8642;SDS011;4359;49.358;11.256;2023-04-23T14:40:07;2.30;;;0.88;;
8642;SDS011;4359;49.358;11.256;2023-04-23T14:42:34;3.08;;;0.85;;
8642;SDS011;4359;49.358;11.256;2023-04-23T14:45:00;5.43;;;1.08;;
8642;SDS011;4359;49.358;11.256;2023-04-23T14:47:26;2.40;;;0.73;;
8642;SDS011;4359;49.358;11.256;2023-04-23T14:49:52;2.55;;;0.80;;
8642;SDS011;4359;49.358;11.256;2023-04-23T14:52:18;3.28;;;0.70;;
8642;SDS011;4359;49.358;11.256;2023-04-23T14:54:44;2.72;;;0.82;;
8642;SDS011;4359;49.358;11.256;2023-04-23T14:57:12;2.20;;;0.90;;
8642;SDS011;4359;49.358;11.256;2023-04-23T14:59:38;1.75;;;0.82;;
8642;SDS011;4359;49.358;11.256;2023-04-23T15:02:04;3.80;;;1.00;;
8642;SDS011;4359;49.358;11.256;2023-04-23T15:04:33;2.47;;;1.00;;
8642;SDS011;4359;49.358;11.256;2023-04-23T15:06:59;2.58;;;0.90;;
8642;SDS011;4359;49.358;11.256;2023-04-23T15:09:25;3.03;;;1.13;;
8642;SDS011;4359;49.358;11.256;2023-04-23T15:11:51;3.03;;;1.20;;